sensor_id;sensor_type;location;lat;lon;timestamp;pressure;altitude;pressure_sealevel;temperature;humidity
64294;BME280;50636;45.596;5.258;2023-02-12T00:01:53;100513.78;;;1.53;65.89
64294;BME280;50636;45.596;5.258;2023-02-12T00:04:21;100512.13;;;1.52;66.40
64294;BME280;50636;45.596;5.258;2023-02-12T00:06:58;100513.97;;;1.50;66.66
64294;BME280;50636;45.596;5.258;2023-02-12T00:09:36;100511.41;;;1.50;66.57
64294;BME280;50636;45.596;5.258;2023-02-12T00:12:19;100517.41;;;1.50;65.79
64294;BME280;50636;45.596;5.258;2023-02-12T00:14:50;100521.78;;;1.35;66.02
64294;BME280;50636;45.596;5.258;2023-02-12T00:17:32;100517.63;;;1.18;66.58
64294;BME280;50636;45.596;5.258;2023-02-12T00:20:05;100525.97;;;1.09;66.83
64294;BME280;50636;45.596;5.258;2023-02-12T00:22:52;100528.94;;;1.03;67.43
64294;BME280;50636;45.596;5.258;2023-02-12T00:25:23;100521.34;;;1.00;67.26
64294;BME280;50636;45.596;5.258;2023-02-12T00:27:52;100518.78;;;1.00;67.40
64294;BME280;50636;45.596;5.258;2023-02-12T00:30:20;100517.75;;;1.03;67.69
64294;BME280;50636;45.596;5.258;2023-02-12T00:32:46;100513.31;;;1.05;67.35
64294;BME280;50636;45.596;5.258;2023-02-12T00:35:18;100512.50;;;1.04;67.84
64294;BME280;50636;45.596;5.258;2023-02-12T00:37:50;100512.41;;;0.91;67.65
64294;BME280;50636;45.596;5.258;2023-02-12T00:40:16;100513.16;;;0.79;67.79
64294;BME280;50636;45.596;5.258;2023-02-12T00:42:57;100514.00;;;0.65;68.12
64294;BME280;50636;45.596;5.258;2023-02-12T00:45:26;100510.00;;;0.59;68.65
64294;BME280;50636;45.596;5.258;2023-02-12T00:47:52;100512.06;;;0.54;68.56
64294;BME280;50636;45.596;5.258;2023-02-12T00:50:30;100512.38;;;0.34;68.64
64294;BME280;50636;45.596;5.258;2023-02-12T00:52:56;100517.16;;;0.40;69.23
64294;BME280;50636;45.596;5.258;2023-02-12T00:55:32;100504.75;;;0.47;68.93
64294;BME280;50636;45.596;5.258;2023-02-12T00:58:14;100516.13;;;0.58;68.67
64294;BME280;50636;45.596;5.258;2023-02-12T01:00:51;100505.03;;;0.56;68.74
64294;BME280;50636;45.596;5.258;2023-02-12T01:03:18;100506.22;;;0.51;68.92
64294;BME280;50636;45.596;5.258;2023-02-12T01:06:05;100505.50;;;0.49;69.42
64294;BME280;50636;45.596;5.258;2023-02-12T01:08:59;100503.94;;;0.61;68.98
64294;BME280;50636;45.596;5.258;2023-02-12T01:11:27;100508.28;;;0.89;68.91
64294;BME280;50636;45.596;5.258;2023-02-12T01:13:53;100507.28;;;1.18;68.20
64294;BME280;50636;45.596;5.258;2023-02-12T01:16:26;100502.88;;;1.20;66.85
64294;BME280;50636;45.596;5.258;2023-02-12T01:18:54;100507.16;;;1.07;66.46
64294;BME280;50636;45.596;5.258;2023-02-12T01:21:28;100508.28;;;0.89;66.94
64294;BME280;50636;45.596;5.258;2023-02-12T01:24:07;100502.25;;;0.88;67.57
64294;BME280;50636;45.596;5.258;2023-02-12T01:26:45;100513.97;;;0.94;67.26
64294;BME280;50636;45.596;5.258;2023-02-12T01:29:20;100512.78;;;0.99;67.34
64294;BME280;50636;45.596;5.258;2023-02-12T01:31:51;100518.25;;;0.95;67.65
64294;BME280;50636;45.596;5.258;2023-02-12T01:34:31;100517.41;;;0.80;67.82
64294;BME280;50636;45.596;5.258;2023-02-12T01:36:57;100517.97;;;0.71;67.50
64294;BME280;50636;45.596;5.258;2023-02-12T01:39:24;100519.06;;;0.67;68.10
64294;BME280;50636;45.596;5.258;2023-02-12T01:41:50;100514.00;;;0.65;68.72
64294;BME280;50636;45.596;5.258;2023-02-12T01:44:30;100511.94;;;0.56;67.94
64294;BME280;50636;45.596;5.258;2023-02-12T01:47:20;100511.47;;;0.49;68.28
64294;BME280;50636;45.596;5.258;2023-02-12T01:49:50;100523.06;;;0.42;68.27
64294;BME280;50636;45.596;5.258;2023-02-12T01:52:30;100521.50;;;0.39;68.28
64294;BME280;50636;45.596;5.258;2023-02-12T01:55:07;100512.28;;;0.35;68.29
64294;BME280;50636;45.596;5.258;2023-02-12T01:57:39;100508.13;;;0.33;68.46
64294;BME280;50636;45.596;5.258;2023-02-12T02:00:30;100507.19;;;0.19;69.10
64294;BME280;50636;45.596;5.258;2023-02-12T02:02:57;100496.09;;;0.17;69.08
64294;BME280;50636;45.596;5.258;2023-02-12T02:08:33;100498.97;;;0.13;69.17
64294;BME280;50636;45.596;5.258;2023-02-12T02:11:14;100493.50;;;0.03;68.47
64294;BME280;50636;45.596;5.258;2023-02-12T02:14:08;100491.84;;;0.02;69.07
64294;BME280;50636;45.596;5.258;2023-02-12T02:20:40;100495.56;;;-0.18;69.34
64294;BME280;50636;45.596;5.258;2023-02-12T02:23:58;100491.06;;;-0.30;69.96
64294;BME280;50636;45.596;5.258;2023-02-12T02:30:15;100491.25;;;-0.33;70.49
64294;BME280;50636;45.596;5.258;2023-02-12T02:33:12;100490.16;;;-0.29;71.00
64294;BME280;50636;45.596;5.258;2023-02-12T02:36:20;100498.31;;;-0.37;70.69
64294;BME280;50636;45.596;5.258;2023-02-12T02:39:44;100497.47;;;-0.22;71.30
64294;BME280;50636;45.596;5.258;2023-02-12T02:45:41;100493.47;;;-0.27;70.41
64294;BME280;50636;45.596;5.258;2023-02-12T02:48:33;100490.44;;;-0.34;70.95
64294;BME280;50636;45.596;5.258;2023-02-12T02:51:41;100487.59;;;-0.45;71.09
64294;BME280;50636;45.596;5.258;2023-02-12T02:55:00;100481.59;;;-0.30;71.25
64294;BME280;50636;45.596;5.258;2023-02-12T02:57:55;100475.38;;;-0.11;70.67
64294;BME280;50636;45.596;5.258;2023-02-12T03:00:56;100478.94;;;0.02;70.54
64294;BME280;50636;45.596;5.258;2023-02-12T03:09:19;100469.50;;;-0.13;71.10
64294;BME280;50636;45.596;5.258;2023-02-12T03:12:16;100464.53;;;-0.02;70.64
64294;BME280;50636;45.596;5.258;2023-02-12T03:15:14;100461.94;;;0.28;70.60
64294;BME280;50636;45.596;5.258;2023-02-12T03:18:12;100458.78;;;0.52;70.29
64294;BME280;50636;45.596;5.258;2023-02-12T03:21:25;100455.22;;;0.54;68.23
64294;BME280;50636;45.596;5.258;2023-02-12T03:27:29;100455.97;;;-0.03;70.18
64294;BME280;50636;45.596;5.258;2023-02-12T03:30:25;100449.19;;;0.11;69.84
64294;BME280;50636;45.596;5.258;2023-02-12T03:33:21;100453.22;;;0.01;69.61
64294;BME280;50636;45.596;5.258;2023-02-12T03:36:46;100467.22;;;-0.04;69.71
64294;BME280;50636;45.596;5.258;2023-02-12T03:39:44;100460.72;;;-0.11;70.04
64294;BME280;50636;45.596;5.258;2023-02-12T03:45:55;100462.13;;;-0.05;70.23
64294;BME280;50636;45.596;5.258;2023-02-12T03:48:26;100462.84;;;-0.17;70.30
64294;BME280;50636;45.596;5.258;2023-02-12T03:54:11;100476.88;;;-0.37;70.72
64294;BME280;50636;45.596;5.258;2023-02-12T03:59:49;100472.75;;;-0.26;71.04
64294;BME280;50636;45.596;5.258;2023-02-12T04:02:24;100463.75;;;-0.18;71.26
64294;BME280;50636;45.596;5.258;2023-02-12T04:08:08;100459.59;;;-0.21;70.76
64294;BME280;50636;45.596;5.258;2023-02-12T04:30:27;100478.66;;;-0.70;72.06
64294;BME280;50636;45.596;5.258;2023-02-12T04:37:25;100478.47;;;-0.83;71.74
64294;BME280;50636;45.596;5.258;2023-02-12T04:39:45;100472.00;;;-0.90;71.45
64294;BME280;50636;45.596;5.258;2023-02-12T04:42:14;100482.63;;;-0.96;72.14
64294;BME280;50636;45.596;5.258;2023-02-12T04:44:42;100476.06;;;-1.02;72.37
64294;BME280;50636;45.596;5.258;2023-02-12T04:47:14;100480.31;;;-1.01;71.69
64294;BME280;50636;45.596;5.258;2023-02-12T04:49:42;100480.13;;;-0.97;72.02
64294;BME280;50636;45.596;5.258;2023-02-12T04:52:09;100480.72;;;-0.92;72.13
64294;BME280;50636;45.596;5.258;2023-02-12T04:54:38;100476.47;;;-0.93;72.21
64294;BME280;50636;45.596;5.258;2023-02-12T04:57:05;100478.31;;;-0.95;72.13
64294;BME280;50636;45.596;5.258;2023-02-12T04:59:32;100473.31;;;-0.98;72.02
64294;BME280;50636;45.596;5.258;2023-02-12T05:01:59;100468.41;;;-1.03;72.24
64294;BME280;50636;45.596;5.258;2023-02-12T05:04:26;100479.56;;;-1.03;71.81
64294;BME280;50636;45.596;5.258;2023-02-12T05:06:53;100471.25;;;-0.92;73.14
64294;BME280;50636;45.596;5.258;2023-02-12T05:09:20;100483.72;;;-0.84;72.66
64294;BME280;50636;45.596;5.258;2023-02-12T05:11:47;100475.81;;;-0.81;72.32
64294;BME280;50636;45.596;5.258;2023-02-12T05:14:14;100477.16;;;-0.74;72.23
64294;BME280;50636;45.596;5.258;2023-02-12T05:16:41;100480.00;;;-0.78;72.25
64294;BME280;50636;45.596;5.258;2023-02-12T05:19:08;100471.41;;;-0.79;72.34
64294;BME280;50636;45.596;5.258;2023-02-12T05:21:49;100487.78;;;-0.80;72.36
64294;BME280;50636;45.596;5.258;2023-02-12T05:24:35;100487.47;;;-0.74;72.29
64294;BME280;50636;45.596;5.258;2023-02-12T05:27:15;100487.47;;;-0.74;72.28
64294;BME280;50636;45.596;5.258;2023-02-12T05:30:00;100481.03;;;-0.83;72.64
64294;BME280;50636;45.596;5.258;2023-02-12T05:32:45;100484.28;;;-0.79;74.55
64294;BME280;50636;45.596;5.258;2023-02-12T05:35:18;100475.72;;;-0.64;76.53
64294;BME280;50636;45.596;5.258;2023-02-12T05:37:56;100476.16;;;-0.25;78.07
64294;BME280;50636;45.596;5.258;2023-02-12T05:40:29;100478.59;;;0.08;78.97
64294;BME280;50636;45.596;5.258;2023-02-12T05:43:02;100482.72;;;0.11;77.38
64294;BME280;50636;45.596;5.258;2023-02-12T05:45:41;100477.94;;;0.05;77.37
64294;BME280;50636;45.596;5.258;2023-02-12T05:48:26;100471.94;;;0.04;76.49
64294;BME280;50636;45.596;5.258;2023-02-12T05:51:06;100478.00;;;0.03;74.63
64294;BME280;50636;45.596;5.258;2023-02-12T05:53:34;100474.38;;;-0.09;73.40
64294;BME280;50636;45.596;5.258;2023-02-12T05:56:14;100477.09;;;-0.26;72.67
64294;BME280;50636;45.596;5.258;2023-02-12T05:58:44;100478.97;;;-0.44;73.35
64294;BME280;50636;45.596;5.258;2023-02-12T06:01:22;100476.47;;;-0.46;73.67
64294;BME280;50636;45.596;5.258;2023-02-12T06:03:49;100468.66;;;-0.44;73.14
64294;BME280;50636;45.596;5.258;2023-02-12T06:06:17;100470.81;;;-0.52;72.90
64294;BME280;50636;45.596;5.258;2023-02-12T06:08:46;100472.22;;;-0.63;72.58
64294;BME280;50636;45.596;5.258;2023-02-12T06:11:14;100471.91;;;-0.72;72.35
64294;BME280;50636;45.596;5.258;2023-02-12T06:13:42;100466.50;;;-0.84;72.42
64294;BME280;50636;45.596;5.258;2023-02-12T06:16:19;100474.06;;;-0.96;73.27
64294;BME280;50636;45.596;5.258;2023-02-12T06:18:47;100470.75;;;-0.98;73.91
64294;BME280;50636;45.596;5.258;2023-02-12T06:21:17;100484.47;;;-0.98;74.03
64294;BME280;50636;45.596;5.258;2023-02-12T06:23:46;100470.75;;;-0.98;73.50
64294;BME280;50636;45.596;5.258;2023-02-12T06:26:15;100472.41;;;-0.97;73.80
64294;BME280;50636;45.596;5.258;2023-02-12T06:28:43;100469.31;;;-1.04;73.77
64294;BME280;50636;45.596;5.258;2023-02-12T06:31:26;100467.66;;;-1.05;73.51
64294;BME280;50636;45.596;5.258;2023-02-12T06:33:55;100466.81;;;-1.06;73.16
64294;BME280;50636;45.596;5.258;2023-02-12T06:36:23;100473.06;;;-1.10;73.27
64294;BME280;50636;45.596;5.258;2023-02-12T06:38:50;100475.44;;;-1.07;73.85
64294;BME280;50636;45.596;5.258;2023-02-12T06:41:17;100474.56;;;-1.06;73.51
64294;BME280;50636;45.596;5.258;2023-02-12T06:43:53;100469.25;;;-1.03;73.47
64294;BME280;50636;45.596;5.258;2023-02-12T06:46:21;100468.50;;;-1.05;73.62
64294;BME280;50636;45.596;5.258;2023-02-12T06:48:51;100469.56;;;-1.09;73.73
64294;BME280;50636;45.596;5.258;2023-02-12T06:51:40;100476.63;;;-1.12;73.79
64294;BME280;50636;45.596;5.258;2023-02-12T06:54:14;100478.59;;;-1.17;73.52
64294;BME280;50636;45.596;5.258;2023-02-12T06:57:01;100466.75;;;-1.04;73.92
64294;BME280;50636;45.596;5.258;2023-02-12T06:59:33;100470.81;;;-1.00;73.72
64294;BME280;50636;45.596;5.258;2023-02-12T07:02:03;100463.84;;;-0.98;74.29
64294;BME280;50636;45.596;5.258;2023-02-12T07:04:32;100473.91;;;-0.93;75.00
64294;BME280;50636;45.596;5.258;2023-02-12T07:06:59;100476.00;;;-0.84;74.54
64294;BME280;50636;45.596;5.258;2023-02-12T07:09:31;100481.91;;;-0.66;74.66
64294;BME280;50636;45.596;5.258;2023-02-12T07:12:03;100476.53;;;-0.31;74.06
64294;BME280;50636;45.596;5.258;2023-02-12T07:14:29;100487.81;;;0.12;73.20
64294;BME280;50636;45.596;5.258;2023-02-12T07:16:56;100482.97;;;0.36;72.04
64294;BME280;50636;45.596;5.258;2023-02-12T07:19:25;100485.19;;;0.57;70.63
64294;BME280;50636;45.596;5.258;2023-02-12T07:21:52;100483.16;;;0.76;70.68
64294;BME280;50636;45.596;5.258;2023-02-12T07:24:20;100476.22;;;0.91;68.96
64294;BME280;50636;45.596;5.258;2023-02-12T07:26:47;100482.63;;;1.27;69.24
64294;BME280;50636;45.596;5.258;2023-02-12T07:29:29;100478.94;;;1.31;67.98
64294;BME280;50636;45.596;5.258;2023-02-12T07:31:55;100487.16;;;1.24;67.47
64294;BME280;50636;45.596;5.258;2023-02-12T07:34:31;100483.41;;;1.15;67.45
64294;BME280;50636;45.596;5.258;2023-02-12T07:37:00;100484.53;;;1.38;67.00
64294;BME280;50636;45.596;5.258;2023-02-12T07:39:38;100483.03;;;1.75;65.79
64294;BME280;50636;45.596;5.258;2023-02-12T07:42:04;100487.97;;;2.06;65.31
64294;BME280;50636;45.596;5.258;2023-02-12T07:44:38;100491.72;;;2.27;63.80
64294;BME280;50636;45.596;5.258;2023-02-12T07:47:05;100480.88;;;2.48;63.36
64294;BME280;50636;45.596;5.258;2023-02-12T07:49:31;100487.19;;;2.56;62.91
64294;BME280;50636;45.596;5.258;2023-02-12T07:51:58;100484.78;;;2.66;62.48
64294;BME280;50636;45.596;5.258;2023-02-12T07:54:25;100484.38;;;2.47;62.02
64294;BME280;50636;45.596;5.258;2023-02-12T07:56:52;100484.25;;;2.61;62.85
64294;BME280;50636;45.596;5.258;2023-02-12T07:59:38;100485.13;;;3.11;62.66
64294;BME280;50636;45.596;5.258;2023-02-12T08:02:05;100482.56;;;3.59;61.34
64294;BME280;50636;45.596;5.258;2023-02-12T08:04:34;100487.34;;;4.12;61.29
64294;BME280;50636;45.596;5.258;2023-02-12T08:07:00;100471.72;;;4.82;60.64
64294;BME280;50636;45.596;5.258;2023-02-12T08:09:29;100479.84;;;5.33;58.18
64294;BME280;50636;45.596;5.258;2023-02-12T08:11:56;100474.59;;;5.77;57.33
64294;BME280;50636;45.596;5.258;2023-02-12T08:14:40;100480.69;;;5.98;56.54
64294;BME280;50636;45.596;5.258;2023-02-12T08:17:19;100480.16;;;6.26;54.54
64294;BME280;50636;45.596;5.258;2023-02-12T08:19:49;100474.47;;;6.63;55.54
64294;BME280;50636;45.596;5.258;2023-02-12T08:22:32;100480.13;;;7.08;53.05
64294;BME280;50636;45.596;5.258;2023-02-12T08:25:09;100476.06;;;7.35;52.17
64294;BME280;50636;45.596;5.258;2023-02-12T08:27:36;100484.47;;;7.58;51.19
64294;BME280;50636;45.596;5.258;2023-02-12T08:30:03;100478.66;;;8.13;50.33
64294;BME280;50636;45.596;5.258;2023-02-12T08:32:31;100477.59;;;9.00;48.84
64294;BME280;50636;45.596;5.258;2023-02-12T08:34:59;100479.75;;;9.32;46.67
64294;BME280;50636;45.596;5.258;2023-02-12T08:37:26;100471.69;;;9.26;46.38
64294;BME280;50636;45.596;5.258;2023-02-12T08:39:52;100476.47;;;9.30;45.64
64294;BME280;50636;45.596;5.258;2023-02-12T08:42:20;100477.09;;;9.60;45.46
64294;BME280;50636;45.596;5.258;2023-02-12T08:44:48;100477.88;;;10.32;45.12
64294;BME280;50636;45.596;5.258;2023-02-12T08:47:15;100468.94;;;11.45;44.35
64294;BME280;50636;45.596;5.258;2023-02-12T08:49:42;100470.22;;;12.64;41.94
64294;BME280;50636;45.596;5.258;2023-02-12T08:52:08;100461.19;;;13.29;39.64
64294;BME280;50636;45.596;5.258;2023-02-12T08:54:50;100463.81;;;12.58;39.13
64294;BME280;50636;45.596;5.258;2023-02-12T08:57:36;100478.84;;;11.84;40.25
64294;BME280;50636;45.596;5.258;2023-02-12T09:00:03;100477.16;;;11.50;40.91
64294;BME280;50636;45.596;5.258;2023-02-12T09:02:30;100472.94;;;11.82;40.83
64294;BME280;50636;45.596;5.258;2023-02-12T09:04:57;100470.63;;;12.28;40.18
64294;BME280;50636;45.596;5.258;2023-02-12T09:07:24;100466.69;;;12.79;39.35
64294;BME280;50636;45.596;5.258;2023-02-12T09:09:51;100460.66;;;13.65;38.62
64294;BME280;50636;45.596;5.258;2023-02-12T09:12:20;100455.19;;;14.72;38.27
64294;BME280;50636;45.596;5.258;2023-02-12T09:14:49;100452.50;;;15.60;35.89
64294;BME280;50636;45.596;5.258;2023-02-12T09:17:17;100443.41;;;16.18;34.22
64294;BME280;50636;45.596;5.258;2023-02-12T09:19:44;100440.84;;;16.67;32.89
64294;BME280;50636;45.596;5.258;2023-02-12T09:22:11;100440.25;;;16.78;32.70
64294;BME280;50636;45.596;5.258;2023-02-12T09:24:39;100439.28;;;17.54;32.42
64294;BME280;50636;45.596;5.258;2023-02-12T09:27:06;100433.97;;;18.21;31.18
64294;BME280;50636;45.596;5.258;2023-02-12T09:29:33;100438.22;;;18.42;30.51
64294;BME280;50636;45.596;5.258;2023-02-12T09:32:11;100436.88;;;18.71;30.46
64294;BME280;50636;45.596;5.258;2023-02-12T09:34:51;100433.94;;;18.99;29.90
64294;BME280;50636;45.596;5.258;2023-02-12T09:37:18;100434.63;;;19.26;29.04
64294;BME280;50636;45.596;5.258;2023-02-12T09:39:44;100422.63;;;19.42;28.78
64294;BME280;50636;45.596;5.258;2023-02-12T09:42:54;100422.41;;;19.75;29.34
64294;BME280;50636;45.596;5.258;2023-02-12T09:51:50;100426.50;;;20.77;27.72
64294;BME280;50636;45.596;5.258;2023-02-12T09:54:47;100429.19;;;21.07;27.73
64294;BME280;50636;45.596;5.258;2023-02-12T09:57:33;100427.75;;;21.23;27.22
64294;BME280;50636;45.596;5.258;2023-02-12T10:00:36;100420.53;;;21.24;26.15
64294;BME280;50636;45.596;5.258;2023-02-12T10:03:18;100425.06;;;20.93;26.20
64294;BME280;50636;45.596;5.258;2023-02-12T10:06:18;100431.44;;;20.92;26.70
64294;BME280;50636;45.596;5.258;2023-02-12T10:15:44;100425.31;;;21.76;24.66
64294;BME280;50636;45.596;5.258;2023-02-12T10:21:32;100434.53;;;20.59;25.80
64294;BME280;50636;45.596;5.258;2023-02-12T10:27:45;100429.69;;;19.23;27.02
64294;BME280;50636;45.596;5.258;2023-02-12T10:33:48;100429.91;;;20.29;26.34
64294;BME280;50636;45.596;5.258;2023-02-12T10:41:46;100418.69;;;22.13;24.68
64294;BME280;50636;45.596;5.258;2023-02-12T10:44:19;100421.00;;;21.32;24.81
64294;BME280;50636;45.596;5.258;2023-02-12T10:46:54;100420.38;;;21.07;25.56
64294;BME280;50636;45.596;5.258;2023-02-12T10:49:20;100415.75;;;21.56;26.18
64294;BME280;50636;45.596;5.258;2023-02-12T10:52:20;100403.00;;;21.70;25.35
64294;BME280;50636;45.596;5.258;2023-02-12T10:55:39;100399.41;;;22.00;24.64
64294;BME280;50636;45.596;5.258;2023-02-12T10:58:19;100402.28;;;22.22;24.78
64294;BME280;50636;45.596;5.258;2023-02-12T11:01:05;100391.38;;;21.88;24.26
64294;BME280;50636;45.596;5.258;2023-02-12T11:03:58;100388.97;;;21.32;24.50
64294;BME280;50636;45.596;5.258;2023-02-12T11:06:33;100390.50;;;20.68;24.52
64294;BME280;50636;45.596;5.258;2023-02-12T11:08:59;100388.34;;;20.40;25.66
64294;BME280;50636;45.596;5.258;2023-02-12T11:11:30;100381.53;;;20.44;25.19
64294;BME280;50636;45.596;5.258;2023-02-12T11:14:27;100378.50;;;20.59;25.32
64294;BME280;50636;45.596;5.258;2023-02-12T11:16:59;100374.25;;;21.00;24.72
64294;BME280;50636;45.596;5.258;2023-02-12T11:19:29;100375.16;;;21.35;24.20
64294;BME280;50636;45.596;5.258;2023-02-12T11:22:11;100375.34;;;21.88;24.20
64294;BME280;50636;45.596;5.258;2023-02-12T11:24:45;100367.03;;;22.37;23.10
64294;BME280;50636;45.596;5.258;2023-02-12T11:27:20;100367.50;;;22.74;22.51
64294;BME280;50636;45.596;5.258;2023-02-12T11:32:36;100354.28;;;23.13;21.92
64294;BME280;50636;45.596;5.258;2023-02-12T11:37:44;100345.69;;;23.28;21.73
64294;BME280;50636;45.596;5.258;2023-02-12T11:40:27;100352.56;;;23.07;22.32
64294;BME280;50636;45.596;5.258;2023-02-12T11:42:58;100340.31;;;23.11;22.08
64294;BME280;50636;45.596;5.258;2023-02-12T11:45:36;100341.72;;;23.30;21.88
64294;BME280;50636;45.596;5.258;2023-02-12T11:48:32;100342.00;;;23.00;21.96
64294;BME280;50636;45.596;5.258;2023-02-12T11:51:03;100327.50;;;23.13;21.63
64294;BME280;50636;45.596;5.258;2023-02-12T11:53:41;100328.63;;;23.17;21.81
64294;BME280;50636;45.596;5.258;2023-02-12T11:56:54;100326.50;;;23.36;21.63
64294;BME280;50636;45.596;5.258;2023-02-12T11:59:50;100325.06;;;23.45;21.30
64294;BME280;50636;45.596;5.258;2023-02-12T12:05:45;100323.31;;;23.56;21.29
64294;BME280;50636;45.596;5.258;2023-02-12T12:08:38;100315.16;;;23.46;21.47
64294;BME280;50636;45.596;5.258;2023-02-12T12:15:03;100313.72;;;23.21;21.61
64294;BME280;50636;45.596;5.258;2023-02-12T12:18:00;100299.09;;;23.29;21.33
64294;BME280;50636;45.596;5.258;2023-02-12T12:24:23;100296.19;;;23.30;21.76
64294;BME280;50636;45.596;5.258;2023-02-12T12:33:42;100290.81;;;23.30;21.46
64294;BME280;50636;45.596;5.258;2023-02-12T12:42:13;100277.69;;;23.12;21.43
64294;BME280;50636;45.596;5.258;2023-02-12T12:48:06;100272.41;;;23.17;21.45
64294;BME280;50636;45.596;5.258;2023-02-12T12:56:46;100264.22;;;23.46;21.11
64294;BME280;50636;45.596;5.258;2023-02-12T13:09:19;100253.06;;;23.15;20.86
64294;BME280;50636;45.596;5.258;2023-02-12T13:18:30;100246.28;;;22.45;20.40
64294;BME280;50636;45.596;5.258;2023-02-12T13:27:45;100255.06;;;21.88;21.25
64294;BME280;50636;45.596;5.258;2023-02-12T13:33:02;100249.28;;;21.32;22.05
64294;BME280;50636;45.596;5.258;2023-02-12T13:35:37;100244.19;;;21.07;22.02
64294;BME280;50636;45.596;5.258;2023-02-12T13:39:03;100244.28;;;20.28;22.65
64294;BME280;50636;45.596;5.258;2023-02-12T13:42:15;100244.25;;;19.61;23.42
64294;BME280;50636;45.596;5.258;2023-02-12T13:50:56;100244.16;;;19.30;24.04
64294;BME280;50636;45.596;5.258;2023-02-12T13:56:53;100232.28;;;19.08;24.26
64294;BME280;50636;45.596;5.258;2023-02-12T13:59:57;100233.56;;;18.99;24.37
64294;BME280;50636;45.596;5.258;2023-02-12T14:05:27;100230.88;;;18.42;24.98
64294;BME280;50636;45.596;5.258;2023-02-12T14:08:03;100230.09;;;17.89;25.71
64294;BME280;50636;45.596;5.258;2023-02-12T14:11:30;100233.03;;;17.48;26.19
64294;BME280;50636;45.596;5.258;2023-02-12T14:28:17;100233.38;;;15.48;29.07
64294;BME280;50636;45.596;5.258;2023-02-12T14:33:51;100234.66;;;15.03;29.92
64294;BME280;50636;45.596;5.258;2023-02-12T14:36:19;100225.03;;;14.95;30.29
64294;BME280;50636;45.596;5.258;2023-02-12T14:41:54;100236.00;;;14.70;30.92
64294;BME280;50636;45.596;5.258;2023-02-12T14:44:47;100239.81;;;14.61;31.30
64294;BME280;50636;45.596;5.258;2023-02-12T14:50:14;100243.13;;;14.33;31.49
64294;BME280;50636;45.596;5.258;2023-02-12T14:53:04;100240.91;;;14.15;31.88
64294;BME280;50636;45.596;5.258;2023-02-12T14:55:33;100233.75;;;13.94;32.38
64294;BME280;50636;45.596;5.258;2023-02-12T14:58:04;100237.72;;;13.90;32.88
64294;BME280;50636;45.596;5.258;2023-02-12T15:00:40;100240.66;;;13.95;32.69
64294;BME280;50636;45.596;5.258;2023-02-12T15:05:54;100227.56;;;13.87;32.69
64294;BME280;50636;45.596;5.258;2023-02-12T15:08:53;100235.91;;;13.76;32.75
64294;BME280;50636;45.596;5.258;2023-02-12T15:11:46;100241.75;;;13.56;33.22
64294;BME280;50636;45.596;5.258;2023-02-12T15:14:35;100241.94;;;13.55;33.69
64294;BME280;50636;45.596;5.258;2023-02-12T15:17:20;100236.94;;;13.45;33.34
64294;BME280;50636;45.596;5.258;2023-02-12T15:20:23;100233.28;;;13.31;33.34
64294;BME280;50636;45.596;5.258;2023-02-12T15:22:58;100234.78;;;13.26;33.72
64294;BME280;50636;45.596;5.258;2023-02-12T15:25:35;100236.97;;;13.22;34.15
64294;BME280;50636;45.596;5.258;2023-02-12T15:28:35;100234.59;;;13.27;33.94
64294;BME280;50636;45.596;5.258;2023-02-12T15:31:20;100232.22;;;13.17;34.30
64294;BME280;50636;45.596;5.258;2023-02-12T15:34:19;100238.50;;;13.16;33.88
64294;BME280;50636;45.596;5.258;2023-02-12T15:37:46;100234.41;;;13.14;34.20
64294;BME280;50636;45.596;5.258;2023-02-12T15:40:30;100227.47;;;13.13;34.04
64294;BME280;50636;45.596;5.258;2023-02-12T15:43:17;100236.50;;;13.18;34.23
64294;BME280;50636;45.596;5.258;2023-02-12T15:45:56;100222.50;;;13.18;34.19
64294;BME280;50636;45.596;5.258;2023-02-12T15:48:35;100235.06;;;13.16;34.14
64294;BME280;50636;45.596;5.258;2023-02-12T15:51:25;100235.09;;;13.08;34.08
64294;BME280;50636;45.596;5.258;2023-02-12T15:53:57;100237.16;;;12.97;34.85
64294;BME280;50636;45.596;5.258;2023-02-12T15:56:26;100228.97;;;12.92;34.63
64294;BME280;50636;45.596;5.258;2023-02-12T15:58:55;100222.25;;;12.90;34.51
64294;BME280;50636;45.596;5.258;2023-02-12T16:01:27;100225.56;;;12.84;34.83
64294;BME280;50636;45.596;5.258;2023-02-12T16:03:59;100229.28;;;12.74;34.82
64294;BME280;50636;45.596;5.258;2023-02-12T16:06:47;100218.66;;;12.68;34.73
64294;BME280;50636;45.596;5.258;2023-02-12T16:09:18;100220.97;;;12.63;34.95
64294;BME280;50636;45.596;5.258;2023-02-12T16:11:55;100219.22;;;12.55;34.93
64294;BME280;50636;45.596;5.258;2023-02-12T16:15:22;100214.41;;;12.58;34.93
64294;BME280;50636;45.596;5.258;2023-02-12T16:18:27;100218.03;;;12.57;35.24
64294;BME280;50636;45.596;5.258;2023-02-12T16:21:24;100221.69;;;12.56;35.48
64294;BME280;50636;45.596;5.258;2023-02-12T16:23:50;100229.63;;;12.48;35.46
64294;BME280;50636;45.596;5.258;2023-02-12T16:26:24;100221.31;;;12.36;35.63
64294;BME280;50636;45.596;5.258;2023-02-12T16:29:28;100221.25;;;12.22;36.08
64294;BME280;50636;45.596;5.258;2023-02-12T16:32:01;100220.00;;;12.09;35.59
64294;BME280;50636;45.596;5.258;2023-02-12T16:34:37;100221.06;;;11.92;35.78
64294;BME280;50636;45.596;5.258;2023-02-12T16:40:18;100228.06;;;11.52;36.97
64294;BME280;50636;45.596;5.258;2023-02-12T16:50:26;100244.03;;;11.26;36.98
64294;BME280;50636;45.596;5.258;2023-02-12T16:53:04;100245.22;;;11.15;37.15
64294;BME280;50636;45.596;5.258;2023-02-12T16:55:36;100252.59;;;11.03;37.46
64294;BME280;50636;45.596;5.258;2023-02-12T16:58:04;100255.38;;;10.93;37.67
64294;BME280;50636;45.596;5.258;2023-02-12T17:00:32;100256.19;;;10.86;37.68
64294;BME280;50636;45.596;5.258;2023-02-12T17:03:00;100249.28;;;10.76;37.81
64294;BME280;50636;45.596;5.258;2023-02-12T17:05:26;100262.38;;;10.60;38.02
64294;BME280;50636;45.596;5.258;2023-02-12T17:07:54;100264.16;;;10.43;38.44
64294;BME280;50636;45.596;5.258;2023-02-12T17:10:21;100264.41;;;10.24;38.45